sensor_id;sensor_type;location;lat;lon;timestamp;P1;durP1;ratioP1;P2;durP2;ratioP2
59649;SDS011;46162;57.568;25.814;2023-06-22T00:01:41;26.65;;;9.25;;
59649;SDS011;46162;57.568;25.814;2023-06-22T00:04:10;22.27;;;9.05;;
59649;SDS011;46162;57.568;25.814;2023-06-22T00:06:40;22.15;;;9.50;;
59649;SDS011;46162;57.568;25.814;2023-06-22T00:09:09;25.98;;;10.18;;
59649;SDS011;46162;57.568;25.814;2023-06-22T00:11:37;30.25;;;10.75;;
59649;SDS011;46162;57.568;25.814;2023-06-22T00:14:06;28.92;;;10.18;;
59649;SDS011;46162;57.568;25.814;2023-06-22T00:16:35;28.23;;;11.65;;
59649;SDS011;46162;57.568;25.814;2023-06-22T00:19:03;21.35;;;10.13;;
59649;SDS011;46162;57.568;25.814;2023-06-22T00:21:32;24.58;;;10.52;;
59649;SDS011;46162;57.568;25.814;2023-06-22T00:24:03;22.65;;;10.57;;
59649;SDS011;46162;57.568;25.814;2023-06-22T00:26:33;24.00;;;10.00;;
59649;SDS011;46162;57.568;25.814;2023-06-22T00:29:01;17.63;;;9.93;;
59649;SDS011;46162;57.568;25.814;2023-06-22T00:31:30;19.30;;;9.38;;
59649;SDS011;46162;57.568;25.814;2023-06-22T00:33:58;23.23;;;9.73;;
59649;SDS011;46162;57.568;25.814;2023-06-22T00:36:27;20.95;;;9.75;;
59649;SDS011;46162;57.568;25.814;2023-06-22T00:38:56;19.23;;;10.30;;
59649;SDS011;46162;57.568;25.814;2023-06-22T00:41:26;31.08;;;10.95;;
59649;SDS011;46162;57.568;25.814;2023-06-22T00:43:55;19.13;;;10.93;;
59649;SDS011;46162;57.568;25.814;2023-06-22T00:46:24;21.27;;;10.40;;
59649;SDS011;46162;57.568;25.814;2023-06-22T00:48:54;22.00;;;10.55;;
59649;SDS011;46162;57.568;25.814;2023-06-22T00:51:24;21.52;;;10.90;;
59649;SDS011;46162;57.568;25.814;2023-06-22T00:53:53;19.30;;;10.07;;
59649;SDS011;46162;57.568;25.814;2023-06-22T00:56:22;29.17;;;10.65;;
59649;SDS011;46162;57.568;25.814;2023-06-22T00:58:53;27.67;;;10.85;;
59649;SDS011;46162;57.568;25.814;2023-06-22T01:01:24;33.35;;;11.02;;
59649;SDS011;46162;57.568;25.814;2023-06-22T01:03:54;30.35;;;11.65;;
59649;SDS011;46162;57.568;25.814;2023-06-22T01:06:26;30.50;;;11.68;;
59649;SDS011;46162;57.568;25.814;2023-06-22T01:09:06;24.73;;;12.20;;
59649;SDS011;46162;57.568;25.814;2023-06-22T01:11:44;27.38;;;12.20;;
59649;SDS011;46162;57.568;25.814;2023-06-22T01:14:18;27.02;;;12.82;;
59649;SDS011;46162;57.568;25.814;2023-06-22T01:16:55;31.48;;;13.02;;
59649;SDS011;46162;57.568;25.814;2023-06-22T01:19:29;28.85;;;12.38;;
59649;SDS011;46162;57.568;25.814;2023-06-22T01:22:08;22.08;;;12.40;;
59649;SDS011;46162;57.568;25.814;2023-06-22T01:24:45;27.65;;;12.10;;
59649;SDS011;46162;57.568;25.814;2023-06-22T01:27:28;22.23;;;12.93;;
59649;SDS011;46162;57.568;25.814;2023-06-22T01:30:03;23.52;;;12.32;;
59649;SDS011;46162;57.568;25.814;2023-06-22T01:32:37;25.50;;;12.77;;
59649;SDS011;46162;57.568;25.814;2023-06-22T01:35:07;25.33;;;12.43;;
59649;SDS011;46162;57.568;25.814;2023-06-22T01:37:37;25.35;;;12.77;;
59649;SDS011;46162;57.568;25.814;2023-06-22T01:40:07;24.02;;;12.40;;
59649;SDS011;46162;57.568;25.814;2023-06-22T01:42:36;19.95;;;12.30;;
59649;SDS011;46162;57.568;25.814;2023-06-22T01:45:08;22.73;;;12.60;;
59649;SDS011;46162;57.568;25.814;2023-06-22T01:47:39;22.25;;;13.05;;
59649;SDS011;46162;57.568;25.814;2023-06-22T01:50:09;19.88;;;11.85;;
59649;SDS011;46162;57.568;25.814;2023-06-22T01:52:38;24.20;;;13.37;;
59649;SDS011;46162;57.568;25.814;2023-06-22T01:55:07;20.67;;;13.43;;
59649;SDS011;46162;57.568;25.814;2023-06-22T01:57:39;28.00;;;13.48;;
59649;SDS011;46162;57.568;25.814;2023-06-22T02:00:10;24.25;;;14.73;;
59649;SDS011;46162;57.568;25.814;2023-06-22T02:02:45;17.70;;;11.80;;
59649;SDS011;46162;57.568;25.814;2023-06-22T02:05:20;24.20;;;12.77;;
59649;SDS011;46162;57.568;25.814;2023-06-22T02:07:56;25.92;;;14.20;;
59649;SDS011;46162;57.568;25.814;2023-06-22T02:10:30;21.00;;;12.95;;
59649;SDS011;46162;57.568;25.814;2023-06-22T02:12:59;22.80;;;13.55;;
59649;SDS011;46162;57.568;25.814;2023-06-22T02:18:00;29.40;;;13.70;;
59649;SDS011;46162;57.568;25.814;2023-06-22T02:20:29;28.40;;;13.98;;
59649;SDS011;46162;57.568;25.814;2023-06-22T02:22:58;26.20;;;13.65;;
59649;SDS011;46162;57.568;25.814;2023-06-22T02:25:26;33.08;;;15.07;;
59649;SDS011;46162;57.568;25.814;2023-06-22T02:27:55;28.55;;;14.45;;
59649;SDS011;46162;57.568;25.814;2023-06-22T02:30:23;21.38;;;15.32;;
59649;SDS011;46162;57.568;25.814;2023-06-22T02:32:54;30.02;;;15.43;;
59649;SDS011;46162;57.568;25.814;2023-06-22T02:35:26;24.38;;;14.73;;
59649;SDS011;46162;57.568;25.814;2023-06-22T02:37:58;28.55;;;16.50;;
59649;SDS011;46162;57.568;25.814;2023-06-22T02:40:27;24.83;;;15.65;;
59649;SDS011;46162;57.568;25.814;2023-06-22T02:42:57;24.45;;;15.63;;
59649;SDS011;46162;57.568;25.814;2023-06-22T02:45:29;19.00;;;14.93;;
59649;SDS011;46162;57.568;25.814;2023-06-22T02:48:00;23.05;;;15.80;;
59649;SDS011;46162;57.568;25.814;2023-06-22T02:50:29;28.10;;;16.83;;
59649;SDS011;46162;57.568;25.814;2023-06-22T02:52:58;27.02;;;16.10;;
59649;SDS011;46162;57.568;25.814;2023-06-22T02:55:30;21.77;;;15.40;;
59649;SDS011;46162;57.568;25.814;2023-06-22T02:57:59;20.42;;;14.98;;
59649;SDS011;46162;57.568;25.814;2023-06-22T03:00:34;23.38;;;15.45;;
59649;SDS011;46162;57.568;25.814;2023-06-22T03:03:05;21.98;;;15.70;;
59649;SDS011;46162;57.568;25.814;2023-06-22T03:05:33;25.88;;;15.52;;
59649;SDS011;46162;57.568;25.814;2023-06-22T03:08:03;27.52;;;16.40;;
59649;SDS011;46162;57.568;25.814;2023-06-22T03:10:34;25.60;;;15.27;;
59649;SDS011;46162;57.568;25.814;2023-06-22T03:13:02;23.35;;;14.88;;
59649;SDS011;46162;57.568;25.814;2023-06-22T03:15:31;24.80;;;15.13;;
59649;SDS011;46162;57.568;25.814;2023-06-22T03:18:00;19.80;;;14.35;;
59649;SDS011;46162;57.568;25.814;2023-06-22T03:20:30;22.20;;;14.02;;
59649;SDS011;46162;57.568;25.814;2023-06-22T03:23:00;19.25;;;13.98;;
59649;SDS011;46162;57.568;25.814;2023-06-22T03:25:29;20.23;;;14.48;;
59649;SDS011;46162;57.568;25.814;2023-06-22T03:27:58;18.92;;;13.57;;
59649;SDS011;46162;57.568;25.814;2023-06-22T03:30:27;17.90;;;12.55;;
59649;SDS011;46162;57.568;25.814;2023-06-22T03:32:56;31.02;;;13.73;;
59649;SDS011;46162;57.568;25.814;2023-06-22T03:35:25;34.78;;;12.98;;
59649;SDS011;46162;57.568;25.814;2023-06-22T03:37:56;61.28;;;14.15;;
59649;SDS011;46162;57.568;25.814;2023-06-22T03:40:25;42.95;;;13.50;;
59649;SDS011;46162;57.568;25.814;2023-06-22T03:42:55;23.75;;;11.98;;
59649;SDS011;46162;57.568;25.814;2023-06-22T03:45:24;30.20;;;12.88;;
59649;SDS011;46162;57.568;25.814;2023-06-22T03:47:52;25.98;;;11.85;;
59649;SDS011;46162;57.568;25.814;2023-06-22T03:50:21;27.85;;;10.05;;
59649;SDS011;46162;57.568;25.814;2023-06-22T03:52:50;22.33;;;10.93;;
59649;SDS011;46162;57.568;25.814;2023-06-22T03:55:20;16.45;;;9.73;;
59649;SDS011;46162;57.568;25.814;2023-06-22T03:57:49;17.75;;;9.13;;
59649;SDS011;46162;57.568;25.814;2023-06-22T04:00:20;12.73;;;8.98;;
59649;SDS011;46162;57.568;25.814;2023-06-22T04:02:48;10.57;;;8.73;;
59649;SDS011;46162;57.568;25.814;2023-06-22T04:05:17;10.90;;;8.65;;
59649;SDS011;46162;57.568;25.814;2023-06-22T04:07:46;11.82;;;8.60;;
59649;SDS011;46162;57.568;25.814;2023-06-22T04:10:14;11.27;;;8.80;;
59649;SDS011;46162;57.568;25.814;2023-06-22T04:12:45;11.57;;;8.60;;
59649;SDS011;46162;57.568;25.814;2023-06-22T04:15:14;10.85;;;8.32;;
59649;SDS011;46162;57.568;25.814;2023-06-22T04:17:43;9.70;;;7.70;;
59649;SDS011;46162;57.568;25.814;2023-06-22T04:20:11;12.13;;;9.13;;
59649;SDS011;46162;57.568;25.814;2023-06-22T04:22:40;11.32;;;8.40;;
59649;SDS011;46162;57.568;25.814;2023-06-22T04:25:09;12.80;;;7.00;;
59649;SDS011;46162;57.568;25.814;2023-06-22T04:27:37;10.27;;;8.00;;
59649;SDS011;46162;57.568;25.814;2023-06-22T04:30:09;11.95;;;7.75;;
59649;SDS011;46162;57.568;25.814;2023-06-22T04:32:39;11.27;;;8.13;;
59649;SDS011;46162;57.568;25.814;2023-06-22T04:35:08;10.25;;;8.57;;
59649;SDS011;46162;57.568;25.814;2023-06-22T04:37:37;16.23;;;8.77;;
59649;SDS011;46162;57.568;25.814;2023-06-22T04:40:06;18.63;;;8.07;;
59649;SDS011;46162;57.568;25.814;2023-06-22T04:42:37;20.92;;;8.38;;
59649;SDS011;46162;57.568;25.814;2023-06-22T04:45:07;11.35;;;7.75;;
59649;SDS011;46162;57.568;25.814;2023-06-22T04:47:37;10.88;;;7.85;;
59649;SDS011;46162;57.568;25.814;2023-06-22T04:50:06;12.30;;;8.32;;
59649;SDS011;46162;57.568;25.814;2023-06-22T04:52:35;10.45;;;7.38;;
59649;SDS011;46162;57.568;25.814;2023-06-22T04:55:04;12.50;;;7.60;;
59649;SDS011;46162;57.568;25.814;2023-06-22T04:57:33;22.30;;;7.77;;
59649;SDS011;46162;57.568;25.814;2023-06-22T05:00:02;12.55;;;7.85;;
59649;SDS011;46162;57.568;25.814;2023-06-22T05:02:41;13.02;;;7.90;;
59649;SDS011;46162;57.568;25.814;2023-06-22T05:05:11;11.02;;;7.25;;
59649;SDS011;46162;57.568;25.814;2023-06-22T05:07:41;11.75;;;7.05;;
59649;SDS011;46162;57.568;25.814;2023-06-22T05:10:11;13.98;;;7.55;;
59649;SDS011;46162;57.568;25.814;2023-06-22T05:12:40;14.65;;;7.32;;
59649;SDS011;46162;57.568;25.814;2023-06-22T05:15:09;11.68;;;7.13;;
59649;SDS011;46162;57.568;25.814;2023-06-22T05:17:38;9.13;;;7.35;;
59649;SDS011;46162;57.568;25.814;2023-06-22T05:20:12;11.85;;;7.43;;
59649;SDS011;46162;57.568;25.814;2023-06-22T05:22:45;15.73;;;7.10;;
59649;SDS011;46162;57.568;25.814;2023-06-22T05:25:13;10.73;;;7.28;;
59649;SDS011;46162;57.568;25.814;2023-06-22T05:27:42;12.02;;;6.97;;
59649;SDS011;46162;57.568;25.814;2023-06-22T05:30:11;13.63;;;7.32;;
59649;SDS011;46162;57.568;25.814;2023-06-22T05:32:40;12.15;;;7.60;;
59649;SDS011;46162;57.568;25.814;2023-06-22T05:35:09;13.75;;;7.88;;
59649;SDS011;46162;57.568;25.814;2023-06-22T05:37:39;14.45;;;7.90;;
59649;SDS011;46162;57.568;25.814;2023-06-22T05:40:08;13.05;;;6.80;;
59649;SDS011;46162;57.568;25.814;2023-06-22T05:42:37;8.82;;;7.50;;
59649;SDS011;46162;57.568;25.814;2023-06-22T05:45:06;15.85;;;8.55;;
59649;SDS011;46162;57.568;25.814;2023-06-22T05:47:35;16.00;;;8.77;;
59649;SDS011;46162;57.568;25.814;2023-06-22T05:50:04;18.05;;;8.68;;
59649;SDS011;46162;57.568;25.814;2023-06-22T05:52:40;10.38;;;7.68;;
59649;SDS011;46162;57.568;25.814;2023-06-22T05:55:09;9.98;;;8.30;;
59649;SDS011;46162;57.568;25.814;2023-06-22T05:57:37;11.00;;;8.98;;
59649;SDS011;46162;57.568;25.814;2023-06-22T06:00:07;13.38;;;9.65;;
59649;SDS011;46162;57.568;25.814;2023-06-22T06:02:39;14.07;;;9.02;;
59649;SDS011;46162;57.568;25.814;2023-06-22T06:05:11;21.13;;;9.55;;
59649;SDS011;46162;57.568;25.814;2023-06-22T06:07:42;11.90;;;8.32;;
59649;SDS011;46162;57.568;25.814;2023-06-22T06:10:11;20.30;;;9.25;;
59649;SDS011;46162;57.568;25.814;2023-06-22T06:12:40;19.50;;;9.98;;
59649;SDS011;46162;57.568;25.814;2023-06-22T06:15:09;10.75;;;8.68;;
59649;SDS011;46162;57.568;25.814;2023-06-22T06:17:44;12.65;;;9.32;;
59649;SDS011;46162;57.568;25.814;2023-06-22T06:20:14;11.85;;;9.15;;
59649;SDS011;46162;57.568;25.814;2023-06-22T06:22:45;12.50;;;8.95;;
59649;SDS011;46162;57.568;25.814;2023-06-22T06:25:13;16.35;;;10.25;;
59649;SDS011;46162;57.568;25.814;2023-06-22T06:27:44;10.30;;;8.55;;
59649;SDS011;46162;57.568;25.814;2023-06-22T06:30:14;21.00;;;9.48;;
59649;SDS011;46162;57.568;25.814;2023-06-22T06:32:43;11.50;;;9.15;;
59649;SDS011;46162;57.568;25.814;2023-06-22T06:35:14;12.85;;;9.98;;
59649;SDS011;46162;57.568;25.814;2023-06-22T06:37:45;14.03;;;10.40;;
59649;SDS011;46162;57.568;25.814;2023-06-22T06:40:14;29.30;;;11.00;;
59649;SDS011;46162;57.568;25.814;2023-06-22T06:42:46;20.52;;;11.63;;
59649;SDS011;46162;57.568;25.814;2023-06-22T06:45:16;25.73;;;12.45;;
59649;SDS011;46162;57.568;25.814;2023-06-22T06:47:46;12.82;;;11.35;;
59649;SDS011;46162;57.568;25.814;2023-06-22T06:50:15;22.42;;;13.18;;
59649;SDS011;46162;57.568;25.814;2023-06-22T06:52:46;22.92;;;14.43;;
59649;SDS011;46162;57.568;25.814;2023-06-22T06:55:16;18.65;;;12.98;;
59649;SDS011;46162;57.568;25.814;2023-06-22T06:57:46;19.70;;;13.70;;
59649;SDS011;46162;57.568;25.814;2023-06-22T07:00:15;21.38;;;14.52;;
59649;SDS011;46162;57.568;25.814;2023-06-22T07:02:45;18.92;;;15.43;;
59649;SDS011;46162;57.568;25.814;2023-06-22T07:05:15;24.85;;;16.77;;
59649;SDS011;46162;57.568;25.814;2023-06-22T07:07:45;22.17;;;16.55;;
59649;SDS011;46162;57.568;25.814;2023-06-22T07:10:14;28.02;;;18.13;;
59649;SDS011;46162;57.568;25.814;2023-06-22T07:12:43;28.45;;;18.25;;
59649;SDS011;46162;57.568;25.814;2023-06-22T07:15:12;28.02;;;19.55;;
59649;SDS011;46162;57.568;25.814;2023-06-22T07:17:42;22.88;;;17.77;;
59649;SDS011;46162;57.568;25.814;2023-06-22T07:20:11;27.05;;;17.48;;
59649;SDS011;46162;57.568;25.814;2023-06-22T07:22:40;20.35;;;17.60;;
59649;SDS011;46162;57.568;25.814;2023-06-22T07:25:13;19.20;;;16.80;;
59649;SDS011;46162;57.568;25.814;2023-06-22T07:27:45;17.58;;;15.75;;
59649;SDS011;46162;57.568;25.814;2023-06-22T07:30:24;21.48;;;15.82;;
59649;SDS011;46162;57.568;25.814;2023-06-22T07:32:54;21.13;;;16.52;;
59649;SDS011;46162;57.568;25.814;2023-06-22T07:35:23;17.50;;;15.50;;
59649;SDS011;46162;57.568;25.814;2023-06-22T07:37:52;18.85;;;16.85;;
59649;SDS011;46162;57.568;25.814;2023-06-22T07:40:22;16.98;;;15.20;;
59649;SDS011;46162;57.568;25.814;2023-06-22T07:42:50;17.83;;;15.43;;
59649;SDS011;46162;57.568;25.814;2023-06-22T07:45:22;19.85;;;15.18;;
59649;SDS011;46162;57.568;25.814;2023-06-22T07:47:50;17.05;;;14.82;;
59649;SDS011;46162;57.568;25.814;2023-06-22T07:50:19;15.43;;;13.90;;
59649;SDS011;46162;57.568;25.814;2023-06-22T07:52:48;19.85;;;13.45;;
59649;SDS011;46162;57.568;25.814;2023-06-22T07:55:17;16.00;;;14.43;;
59649;SDS011;46162;57.568;25.814;2023-06-22T07:57:48;16.85;;;15.18;;
59649;SDS011;46162;57.568;25.814;2023-06-22T08:00:19;16.75;;;15.05;;
59649;SDS011;46162;57.568;25.814;2023-06-22T08:02:47;15.93;;;14.07;;
59649;SDS011;46162;57.568;25.814;2023-06-22T08:05:16;18.50;;;15.32;;
59649;SDS011;46162;57.568;25.814;2023-06-22T08:07:48;18.95;;;16.77;;
59649;SDS011;46162;57.568;25.814;2023-06-22T08:10:17;17.58;;;15.77;;
59649;SDS011;46162;57.568;25.814;2023-06-22T08:12:48;18.55;;;16.70;;
59649;SDS011;46162;57.568;25.814;2023-06-22T08:15:18;19.23;;;17.42;;
59649;SDS011;46162;57.568;25.814;2023-06-22T08:17:51;22.17;;;18.05;;
59649;SDS011;46162;57.568;25.814;2023-06-22T08:20:20;19.70;;;17.60;;
59649;SDS011;46162;57.568;25.814;2023-06-22T08:22:49;22.40;;;20.15;;
59649;SDS011;46162;57.568;25.814;2023-06-22T08:25:17;21.80;;;19.45;;
59649;SDS011;46162;57.568;25.814;2023-06-22T08:27:46;22.60;;;20.02;;
59649;SDS011;46162;57.568;25.814;2023-06-22T08:30:18;22.70;;;20.27;;
59649;SDS011;46162;57.568;25.814;2023-06-22T08:32:46;26.58;;;21.05;;
59649;SDS011;46162;57.568;25.814;2023-06-22T08:35:15;22.33;;;20.02;;
59649;SDS011;46162;57.568;25.814;2023-06-22T08:37:43;22.60;;;20.25;;
59649;SDS011;46162;57.568;25.814;2023-06-22T08:40:17;23.55;;;20.88;;
59649;SDS011;46162;57.568;25.814;2023-06-22T08:42:47;23.40;;;21.13;;
59649;SDS011;46162;57.568;25.814;2023-06-22T08:45:17;23.75;;;21.48;;
59649;SDS011;46162;57.568;25.814;2023-06-22T08:47:46;24.17;;;21.98;;
59649;SDS011;46162;57.568;25.814;2023-06-22T08:50:15;24.88;;;22.40;;
59649;SDS011;46162;57.568;25.814;2023-06-22T08:52:43;26.05;;;22.52;;
59649;SDS011;46162;57.568;25.814;2023-06-22T08:55:12;23.58;;;21.38;;
59649;SDS011;46162;57.568;25.814;2023-06-22T08:57:41;24.08;;;21.67;;
59649;SDS011;46162;57.568;25.814;2023-06-22T09:00:11;25.23;;;22.75;;
59649;SDS011;46162;57.568;25.814;2023-06-22T09:02:50;23.70;;;21.45;;
59649;SDS011;46162;57.568;25.814;2023-06-22T09:05:19;25.65;;;23.15;;
59649;SDS011;46162;57.568;25.814;2023-06-22T09:07:48;22.38;;;20.17;;
59649;SDS011;46162;57.568;25.814;2023-06-22T09:10:17;20.27;;;18.38;;
59649;SDS011;46162;57.568;25.814;2023-06-22T09:12:46;21.17;;;19.08;;
59649;SDS011;46162;57.568;25.814;2023-06-22T09:15:14;21.02;;;19.17;;
59649;SDS011;46162;57.568;25.814;2023-06-22T09:17:44;22.70;;;20.43;;
59649;SDS011;46162;57.568;25.814;2023-06-22T09:20:16;22.70;;;20.75;;
59649;SDS011;46162;57.568;25.814;2023-06-22T09:22:45;21.75;;;19.75;;
59649;SDS011;46162;57.568;25.814;2023-06-22T09:25:14;19.77;;;17.80;;
59649;SDS011;46162;57.568;25.814;2023-06-22T09:27:42;19.13;;;17.35;;
59649;SDS011;46162;57.568;25.814;2023-06-22T09:30:11;17.75;;;15.98;;
59649;SDS011;46162;57.568;25.814;2023-06-22T09:32:40;18.05;;;16.35;;
59649;SDS011;46162;57.568;25.814;2023-06-22T09:35:09;18.42;;;16.63;;
59649;SDS011;46162;57.568;25.814;2023-06-22T09:40:09;16.60;;;15.10;;
59649;SDS011;46162;57.568;25.814;2023-06-22T09:42:41;16.83;;;15.23;;
59649;SDS011;46162;57.568;25.814;2023-06-22T09:45:10;17.27;;;15.50;;
59649;SDS011;46162;57.568;25.814;2023-06-22T09:47:38;17.20;;;15.38;;
59649;SDS011;46162;57.568;25.814;2023-06-22T09:50:08;16.15;;;14.63;;
59649;SDS011;46162;57.568;25.814;2023-06-22T09:52:37;16.58;;;14.80;;
59649;SDS011;46162;57.568;25.814;2023-06-22T09:55:15;16.75;;;15.10;;
59649;SDS011;46162;57.568;25.814;2023-06-22T09:57:44;16.08;;;14.65;;
59649;SDS011;46162;57.568;25.814;2023-06-22T10:00:13;15.35;;;13.95;;
59649;SDS011;46162;57.568;25.814;2023-06-22T10:05:12;15.57;;;14.13;;
59649;SDS011;46162;57.568;25.814;2023-06-22T10:07:42;15.93;;;14.43;;
59649;SDS011;46162;57.568;25.814;2023-06-22T10:10:11;14.95;;;13.63;;
59649;SDS011;46162;57.568;25.814;2023-06-22T10:12:46;14.60;;;13.30;;
59649;SDS011;46162;57.568;25.814;2023-06-22T10:15:16;15.73;;;14.13;;
59649;SDS011;46162;57.568;25.814;2023-06-22T10:17:45;14.18;;;12.88;;
59649;SDS011;46162;57.568;25.814;2023-06-22T10:20:14;13.95;;;12.65;;
59649;SDS011;46162;57.568;25.814;2023-06-22T10:22:45;16.05;;;13.63;;
59649;SDS011;46162;57.568;25.814;2023-06-22T10:25:14;14.75;;;13.30;;
59649;SDS011;46162;57.568;25.814;2023-06-22T10:27:42;15.65;;;14.02;;
59649;SDS011;46162;57.568;25.814;2023-06-22T10:30:13;16.98;;;14.10;;
59649;SDS011;46162;57.568;25.814;2023-06-22T10:32:42;15.70;;;14.20;;
59649;SDS011;46162;57.568;25.814;2023-06-22T10:35:11;15.70;;;14.10;;
59649;SDS011;46162;57.568;25.814;2023-06-22T10:37:43;17.50;;;14.98;;
59649;SDS011;46162;57.568;25.814;2023-06-22T10:40:12;16.33;;;14.73;;
59649;SDS011;46162;57.568;25.814;2023-06-22T10:42:42;17.48;;;14.23;;
59649;SDS011;46162;57.568;25.814;2023-06-22T10:45:11;17.30;;;15.55;;
59649;SDS011;46162;57.568;25.814;2023-06-22T10:47:42;16.05;;;14.63;;
59649;SDS011;46162;57.568;25.814;2023-06-22T10:50:11;15.95;;;14.45;;
59649;SDS011;46162;57.568;25.814;2023-06-22T10:52:39;16.45;;;14.85;;
59649;SDS011;46162;57.568;25.814;2023-06-22T10:55:09;17.83;;;16.02;;
59649;SDS011;46162;57.568;25.814;2023-06-22T10:57:38;19.13;;;17.45;;
59649;SDS011;46162;57.568;25.814;2023-06-22T11:00:11;18.63;;;16.75;;
59649;SDS011;46162;57.568;25.814;2023-06-22T11:02:42;19.10;;;17.40;;
59649;SDS011;46162;57.568;25.814;2023-06-22T11:05:12;19.20;;;17.38;;
59649;SDS011;46162;57.568;25.814;2023-06-22T11:07:41;21.05;;;18.95;;
59649;SDS011;46162;57.568;25.814;2023-06-22T11:10:12;21.92;;;19.70;;
59649;SDS011;46162;57.568;25.814;2023-06-22T11:12:41;21.65;;;19.65;;
59649;SDS011;46162;57.568;25.814;2023-06-22T11:15:10;23.45;;;21.35;;
59649;SDS011;46162;57.568;25.814;2023-06-22T11:17:40;22.98;;;20.88;;
59649;SDS011;46162;57.568;25.814;2023-06-22T11:20:09;25.67;;;23.13;;
59649;SDS011;46162;57.568;25.814;2023-06-22T11:22:39;26.90;;;24.17;;
59649;SDS011;46162;57.568;25.814;2023-06-22T11:25:08;27.93;;;25.23;;
59649;SDS011;46162;57.568;25.814;2023-06-22T11:27:38;28.20;;;25.50;;
59649;SDS011;46162;57.568;25.814;2023-06-22T11:30:07;28.40;;;25.63;;
59649;SDS011;46162;57.568;25.814;2023-06-22T11:32:36;28.35;;;25.63;;
59649;SDS011;46162;57.568;25.814;2023-06-22T11:35:07;31.58;;;27.92;;
59649;SDS011;46162;57.568;25.814;2023-06-22T11:37:36;27.85;;;25.15;;
59649;SDS011;46162;57.568;25.814;2023-06-22T11:40:05;26.85;;;23.73;;
59649;SDS011;46162;57.568;25.814;2023-06-22T11:42:36;27.00;;;23.95;;
59649;SDS011;46162;57.568;25.814;2023-06-22T11:45:05;24.45;;;22.15;;
59649;SDS011;46162;57.568;25.814;2023-06-22T11:47:34;23.85;;;21.52;;
59649;SDS011;46162;57.568;25.814;2023-06-22T11:50:04;24.42;;;21.85;;
59649;SDS011;46162;57.568;25.814;2023-06-22T11:52:35;24.48;;;22.08;;
59649;SDS011;46162;57.568;25.814;2023-06-22T11:55:04;25.27;;;22.77;;
59649;SDS011;46162;57.568;25.814;2023-06-22T11:57:33;22.83;;;20.63;;
59649;SDS011;46162;57.568;25.814;2023-06-22T12:00:03;23.10;;;20.75;;
59649;SDS011;46162;57.568;25.814;2023-06-22T12:02:43;21.75;;;19.55;;
59649;SDS011;46162;57.568;25.814;2023-06-22T12:05:12;23.95;;;21.58;;
59649;SDS011;46162;57.568;25.814;2023-06-22T12:07:42;25.85;;;23.35;;
59649;SDS011;46162;57.568;25.814;2023-06-22T12:10:11;27.13;;;24.42;;
59649;SDS011;46162;57.568;25.814;2023-06-22T12:12:40;27.42;;;24.73;;
59649;SDS011;46162;57.568;25.814;2023-06-22T12:15:09;29.02;;;26.13;;
59649;SDS011;46162;57.568;25.814;2023-06-22T12:17:39;32.53;;;27.50;;
59649;SDS011;46162;57.568;25.814;2023-06-22T12:20:08;31.15;;;27.67;;
59649;SDS011;46162;57.568;25.814;2023-06-22T12:22:41;31.03;;;27.77;;
59649;SDS011;46162;57.568;25.814;2023-06-22T12:25:11;30.38;;;27.15;;
59649;SDS011;46162;57.568;25.814;2023-06-22T12:27:40;30.75;;;27.70;;
59649;SDS011;46162;57.568;25.814;2023-06-22T12:30:09;30.70;;;27.52;;
59649;SDS011;46162;57.568;25.814;2023-06-22T12:32:38;31.35;;;27.95;;
59649;SDS011;46162;57.568;25.814;2023-06-22T12:35:07;31.15;;;28.05;;
59649;SDS011;46162;57.568;25.814;2023-06-22T12:37:41;33.23;;;29.63;;
59649;SDS011;46162;57.568;25.814;2023-06-22T12:40:11;31.75;;;28.38;;
59649;SDS011;46162;57.568;25.814;2023-06-22T12:42:40;34.00;;;30.40;;
59649;SDS011;46162;57.568;25.814;2023-06-22T12:45:09;34.75;;;31.20;;
59649;SDS011;46162;57.568;25.814;2023-06-22T12:47:38;39.28;;;34.35;;
59649;SDS011;46162;57.568;25.814;2023-06-22T12:50:07;49.33;;;39.83;;
59649;SDS011;46162;57.568;25.814;2023-06-22T12:52:36;52.40;;;44.60;;
59649;SDS011;46162;57.568;25.814;2023-06-22T12:55:09;57.42;;;45.55;;
59649;SDS011;46162;57.568;25.814;2023-06-22T12:57:38;63.15;;;50.38;;
59649;SDS011;46162;57.568;25.814;2023-06-22T13:00:07;71.13;;;50.35;;
59649;SDS011;46162;57.568;25.814;2023-06-22T13:02:37;69.78;;;52.22;;
59649;SDS011;46162;57.568;25.814;2023-06-22T13:05:06;78.50;;;52.67;;
59649;SDS011;46162;57.568;25.814;2023-06-22T13:07:35;68.90;;;52.33;;
59649;SDS011;46162;57.568;25.814;2023-06-22T13:10:05;62.28;;;48.30;;
59649;SDS011;46162;57.568;25.814;2023-06-22T13:12:36;62.90;;;49.30;;
59649;SDS011;46162;57.568;25.814;2023-06-22T13:15:05;76.60;;;54.03;;
59649;SDS011;46162;57.568;25.814;2023-06-22T13:17:35;67.80;;;54.08;;
59649;SDS011;46162;57.568;25.814;2023-06-22T13:20:04;67.35;;;51.72;;
59649;SDS011;46162;57.568;25.814;2023-06-22T13:22:35;69.07;;;51.15;;
59649;SDS011;46162;57.568;25.814;2023-06-22T13:25:07;65.30;;;50.45;;
59649;SDS011;46162;57.568;25.814;2023-06-22T13:27:41;62.85;;;49.42;;
59649;SDS011;46162;57.568;25.814;2023-06-22T13:30:10;58.03;;;47.20;;
59649;SDS011;46162;57.568;25.814;2023-06-22T13:32:41;66.03;;;50.83;;
59649;SDS011;46162;57.568;25.814;2023-06-22T13:35:10;64.18;;;50.47;;
59649;SDS011;46162;57.568;25.814;2023-06-22T13:37:39;63.83;;;52.55;;
59649;SDS011;46162;57.568;25.814;2023-06-22T13:40:08;62.60;;;49.75;;
59649;SDS011;46162;57.568;25.814;2023-06-22T13:42:37;64.45;;;51.75;;
59649;SDS011;46162;57.568;25.814;2023-06-22T13:45:08;63.33;;;51.90;;
59649;SDS011;46162;57.568;25.814;2023-06-22T13:47:37;61.85;;;51.17;;
59649;SDS011;46162;57.568;25.814;2023-06-22T13:50:06;64.63;;;51.97;;
59649;SDS011;46162;57.568;25.814;2023-06-22T13:52:35;64.20;;;50.90;;
59649;SDS011;46162;57.568;25.814;2023-06-22T13:55:04;58.45;;;49.88;;
59649;SDS011;46162;57.568;25.814;2023-06-22T13:57:33;60.80;;;50.25;;
59649;SDS011;46162;57.568;25.814;2023-06-22T14:00:02;60.35;;;48.80;;
59649;SDS011;46162;57.568;25.814;2023-06-22T14:02:38;55.85;;;45.75;;
59649;SDS011;46162;57.568;25.814;2023-06-22T14:05:07;58.80;;;46.90;;
59649;SDS011;46162;57.568;25.814;2023-06-22T14:07:37;48.05;;;41.22;;
59649;SDS011;46162;57.568;25.814;2023-06-22T14:10:06;46.80;;;41.60;;
59649;SDS011;46162;57.568;25.814;2023-06-22T14:12:35;49.42;;;42.10;;
59649;SDS011;46162;57.568;25.814;2023-06-22T14:15:05;46.92;;;40.85;;
59649;SDS011;46162;57.568;25.814;2023-06-22T14:17:34;45.92;;;40.20;;
59649;SDS011;46162;57.568;25.814;2023-06-22T14:20:05;43.60;;;36.85;;
59649;SDS011;46162;57.568;25.814;2023-06-22T14:22:35;41.33;;;36.70;;
59649;SDS011;46162;57.568;25.814;2023-06-22T14:25:04;38.85;;;34.35;;
59649;SDS011;46162;57.568;25.814;2023-06-22T14:27:34;33.00;;;29.33;;
59649;SDS011;46162;57.568;25.814;2023-06-22T14:30:03;34.58;;;27.45;;
59649;SDS011;46162;57.568;25.814;2023-06-22T14:32:33;30.58;;;25.42;;
59649;SDS011;46162;57.568;25.814;2023-06-22T14:35:01;28.02;;;25.05;;